Time;durP1;ratioP1;P1;durP2;ratioP2;P2;SDS_P1;SDS_P2;PMS_P1;PMS_P2;Temp;Humidity;BMP_temperature;BMP_pressure;BME280_temperature;BME280_humidity;BME280_pressure;Samples;Min_cycle;Max_cycle;Signal;HPM_P1;HPM_P2
2023/03/20 00:01:33;;;;;;;1999.90;999.90;;;;;;;9.08;100.00;94172.22;5085906;28;20186;-60
2023/03/20 00:03:58;;;;;;;1999.90;999.90;;;;;;;9.11;100.00;94168.63;5085175;28;20181;-60
2023/03/20 00:06:27;;;;;;;1999.90;999.90;;;;;;;9.06;100.00;94190.91;5085751;28;20183;-60
2023/03/20 00:08:54;;;;;;;1999.90;999.90;;;;;;;9.08;100.00;94212.28;5085524;28;20205;-60
2023/03/20 00:11:25;;;;;;;1999.90;999.90;;;;;;;9.09;100.00;94217.31;5085670;28;20180;-59
2023/03/20 00:13:52;;;;;;;1999.90;999.90;;;;;;;9.04;100.00;94225.94;5085624;28;20493;-60
2023/03/20 00:16:17;;;;;;;1999.90;999.90;;;;;;;9.04;100.00;94231.41;5085674;28;20185;-60
2023/03/20 00:18:43;;;;;;;1999.90;999.90;;;;;;;9.05;100.00;94224.00;5085674;28;20173;-60
2023/03/20 00:21:16;;;;;;;1999.90;999.90;;;;;;;9.06;100.00;94217.38;5085412;28;20173;-60
2023/03/20 00:23:42;;;;;;;1999.90;999.90;;;;;;;8.95;100.00;94223.03;5085693;28;20472;-60
2023/03/20 00:26:12;;;;;;;1999.90;999.90;;;;;;;8.97;100.00;94231.56;5085842;28;20173;-60
2023/03/20 00:28:42;;;;;;;1999.90;999.90;;;;;;;8.98;100.00;94222.22;5085247;28;20245;-62
2023/03/20 00:31:28;;;;;;;1999.90;999.90;;;;;;;8.96;100.00;94224.56;5085370;28;20177;-61
2023/03/20 00:33:56;;;;;;;1999.90;999.90;;;;;;;8.96;100.00;94224.56;5084436;28;20177;-60
2023/03/20 00:36:23;;;;;;;1999.90;999.90;;;;;;;8.97;100.00;94231.56;5085089;28;20197;-60
2023/03/20 00:38:49;;;;;;;1999.90;999.90;;;;;;;9.01;100.00;94224.09;5085055;28;20170;-60
2023/03/20 00:41:45;;;;;;;1999.90;999.90;;;;;;;9.00;100.00;94230.72;5085162;28;20176;-60
2023/03/20 00:44:29;;;;;;;1999.90;999.90;;;;;;;8.97;100.00;94223.41;5085749;28;20248;-60
2023/03/20 00:46:58;;;;;;;1999.90;999.90;;;;;;;9.02;100.00;94225.63;5085278;28;20170;-61
2023/03/20 00:49:29;;;;;;;1999.90;999.90;;;;;;;9.03;100.00;94224.44;5084840;28;20209;-60
2023/03/20 00:52:00;;;;;;;1999.90;999.90;;;;;;;9.00;100.00;94225.25;5085079;28;20173;-62
2023/03/20 00:54:25;;;;;;;1999.90;999.90;;;;;;;9.00;100.00;94230.72;5085085;28;20195;-61
2023/03/20 00:56:56;;;;;;;1999.90;999.90;;;;;;;8.98;100.00;94238.53;5085209;28;20180;-61
2023/03/20 00:59:25;;;;;;;1999.90;999.90;;;;;;;8.96;100.00;94240.91;5085601;28;20176;-61
2023/03/20 01:01:51;;;;;;;1999.90;999.90;;;;;;;8.90;100.00;94237.16;5084672;28;20462;-61
2023/03/20 01:04:19;;;;;;;1999.90;999.90;;;;;;;8.91;100.00;94241.41;5084666;28;20229;-61
2023/03/20 01:06:45;;;;;;;1999.90;999.90;;;;;;;8.90;100.00;94247.28;5085034;28;20171;-61
2023/03/20 01:09:10;;;;;;;1999.90;999.90;;;;;;;8.87;100.00;94242.66;5085200;28;20197;-61
2023/03/20 01:11:37;;;;;;;1999.90;999.90;;;;;;;8.86;100.00;94247.31;5084746;28;20232;-61
2023/03/20 01:14:03;;;;;;;1999.90;999.90;;;;;;;8.87;100.00;94253.56;5084486;28;20171;-61
2023/03/20 01:16:29;;;;;;;1999.90;999.90;;;;;;;8.86;100.00;94250.06;5084645;28;20165;-61
2023/03/20 01:18:54;;;;;;;1999.90;999.90;;;;;;;8.85;100.00;94245.81;5084347;28;20195;-61
2023/03/20 01:21:20;;;;;;;1999.90;999.90;;;;;;;8.87;100.00;94254.34;5084826;28;20170;-62
2023/03/20 01:23:47;;;;;;;1999.90;999.90;;;;;;;8.86;100.00;94254.75;5084287;28;20204;-62
2023/03/20 01:26:32;;;;;;;1999.90;999.90;;;;;;;8.84;100.00;94260.59;5084246;28;20165;-62
2023/03/20 01:28:58;;;;;;;1999.90;999.90;;;;;;;8.87;100.00;94257.06;5084005;28;20220;-61
2023/03/20 01:31:23;;;;;;;1999.90;999.90;;;;;;;8.85;100.00;94272.28;5084673;28;20184;-62
2023/03/20 01:33:48;;;;;;;1999.90;999.90;;;;;;;8.88;100.00;94261.31;5084667;28;20173;-62
2023/03/20 01:36:16;;;;;;;1999.90;999.90;;;;;;;8.86;100.00;94279.25;5084121;28;20244;-61
2023/03/20 01:38:42;;;;;;;1999.90;999.90;;;;;;;8.83;100.00;94274.63;5084542;28;20197;-61
2023/03/20 01:41:17;;;;;;;1999.90;999.90;;;;;;;8.84;100.00;94282.38;5084016;28;20180;-61
2023/03/20 01:43:44;;;;;;;1999.90;999.90;;;;;;;8.85;100.00;94283.16;5084504;28;20476;-62
2023/03/20 01:46:09;;;;;;;1999.90;999.90;;;;;;;8.84;100.00;94285.09;5083982;28;20185;-61
2023/03/20 01:49:00;;;;;;;1999.90;999.90;;;;;;;8.81;100.00;94283.22;5083063;28;20197;-61
2023/03/20 01:51:31;;;;;;;1999.90;999.90;;;;;;;8.81;100.00;94282.44;5084401;28;20173;-60
2023/03/20 01:54:06;;;;;;;1999.90;999.90;;;;;;;8.85;100.00;94283.91;5084227;28;20185;-61
2023/03/20 01:56:37;;;;;;;1999.90;999.90;;;;;;;8.86;100.00;94290.13;5084344;28;20173;-61
2023/03/20 01:59:09;;;;;;;1999.90;999.90;;;;;;;8.86;100.00;94280.00;5084469;28;20161;-62
2023/03/20 02:01:36;;;;;;;1999.90;999.90;;;;;;;8.86;100.00;94280.00;5084401;28;20162;-63
2023/03/20 02:04:02;;;;;;;1999.90;999.90;;;;;;;8.85;100.00;94289.34;5083824;28;20194;-61
2023/03/20 02:06:28;;;;;;;1999.90;999.90;;;;;;;8.86;100.00;94290.88;5083744;28;20193;-60
2023/03/20 02:08:54;;;;;;;1999.90;999.90;;;;;;;8.86;100.00;94296.31;5084388;28;20197;-60
2023/03/20 02:11:24;;;;;;;1999.90;999.90;;;;;;;8.85;100.00;94294.81;5083710;28;20169;-62
2023/03/20 02:13:53;;;;;;;1999.90;999.90;;;;;;;8.84;100.00;94304.16;5083613;28;20232;-61
2023/03/20 02:16:19;;;;;;;1999.90;999.90;;;;;;;8.84;100.00;94304.16;5083634;28;20229;-62
2023/03/20 02:18:47;;;;;;;1999.90;999.90;;;;;;;8.85;100.00;94308.41;5084111;28;20166;-62
2023/03/20 02:22:00;;;;;;;1999.90;999.90;;;;;;;8.87;100.00;94303.34;5083736;28;20165;-62
2023/03/20 02:25:04;;;;;;;1999.90;999.90;;;;;;;8.86;100.00;94312.66;5084100;28;20159;-60
2023/03/20 02:28:06;;;;;;;1999.90;999.90;;;;;;;8.90;100.00;94313.38;5083778;28;20238;-63
2023/03/20 02:31:01;;;;;;;1999.90;999.90;;;;;;;8.89;100.00;94311.81;5083508;28;20177;-62
2023/03/20 02:34:02;;;;;;;1999.90;999.90;;;;;;;8.86;100.00;94312.66;5084143;28;20193;-62
2023/03/20 02:36:33;;;;;;;1999.90;999.90;;;;;;;8.88;100.00;94315.75;5051648;28;20530;-62
2023/03/20 02:39:09;;;;;;;1999.90;999.90;;;;;;;8.89;100.00;94316.53;5084039;28;20167;-61
2023/03/20 02:41:57;;;;;;;1999.90;999.90;;;;;;;8.92;100.00;94321.88;5083356;28;20197;-61
2023/03/20 02:45:01;;;;;;;1999.90;999.90;;;;;;;8.91;100.00;94314.91;5084244;28;20201;-61
2023/03/20 02:47:35;;;;;;;1999.90;999.90;;;;;;;8.89;100.00;94322.72;5083932;28;20252;-61
2023/03/20 02:50:17;;;;;;;1999.90;999.90;;;;;;;8.84;100.00;94320.50;5083949;28;20173;-61
2023/03/20 02:52:56;;;;;;;1999.90;999.90;;;;;;;8.84;100.00;94320.50;5084122;28;20171;-61
2023/03/20 02:55:43;;;;;;;1999.90;999.90;;;;;;;8.84;100.00;94330.59;5083827;28;20212;-62
2023/03/20 02:58:19;;;;;;;1999.90;999.90;;;;;;;8.83;100.00;94324.41;5083574;28;20168;-63
2023/03/20 03:00:54;;;;;;;1999.90;999.90;;;;;;;8.82;100.00;94330.28;5087135;28;20169;-62
2023/03/20 03:03:27;;;;;;;1999.90;999.90;;;;;;;8.79;100.00;94331.09;5087193;28;20157;-61
2023/03/20 03:05:57;;;;;;;1999.90;999.90;;;;;;;8.81;100.00;94334.94;5086738;28;20157;-63
2023/03/20 03:08:27;;;;;;;1999.90;999.90;;;;;;;8.82;100.00;94339.19;5086821;28;20198;-62
2023/03/20 03:10:58;;;;;;;1999.90;999.90;;;;;;;8.82;100.00;94333.00;5086761;28;20342;-62
2023/03/20 03:13:31;;;;;;;1999.90;999.90;;;;;;;8.82;100.00;94344.63;5087324;28;20169;-61
2023/03/20 03:16:03;;;;;;;1999.90;999.90;;;;;;;8.82;100.00;94339.19;5087205;28;20255;-60
2023/03/20 03:18:28;;;;;;;1999.90;999.90;;;;;;;8.83;100.00;94340.75;5087251;28;20161;-61
2023/03/20 03:20:58;;;;;;;1999.90;999.90;;;;;;;8.80;100.00;94338.84;5087185;28;20169;-62
2023/03/20 03:23:34;;;;;;;1999.90;999.90;;;;;;;8.80;100.00;94341.56;5086594;28;20165;-62
2023/03/20 03:26:03;;;;;;;1999.90;999.90;;;;;;;8.80;100.00;94340.78;5086995;28;20165;-63
2023/03/20 03:28:49;;;;;;;1999.90;999.90;;;;;;;8.76;100.00;94335.44;5086743;28;20491;-61
2023/03/20 03:31:17;;;;;;;1999.90;999.90;;;;;;;8.77;100.00;94339.69;5086452;28;20185;-62
2023/03/20 03:33:49;;;;;;;1999.90;999.90;;;;;;;8.75;100.00;94333.88;5087114;28;20165;-63
2023/03/20 03:36:36;;;;;;;1999.90;999.90;;;;;;;8.75;100.00;94344.75;5086989;28;20177;-63
2023/03/20 03:39:27;;;;;;;1999.90;999.90;;;;;;;8.76;100.00;94349.03;5086307;28;20291;-64
2023/03/20 03:41:53;;;;;;;1999.90;999.90;;;;;;;8.74;100.00;94347.91;5086743;28;20164;-63
2023/03/20 03:44:28;;;;;;;1999.90;999.90;;;;;;;8.75;100.00;94349.44;5086246;28;20236;-62
2023/03/20 03:47:02;;;;;;;1999.90;999.90;;;;;;;8.73;100.00;94358.03;5086932;28;20153;-62
2023/03/20 03:49:32;;;;;;;1999.90;999.90;;;;;;;8.75;100.00;94346.72;5086526;28;20196;-62
2023/03/20 03:52:04;;;;;;;1999.90;999.90;;;;;;;8.72;100.00;94359.22;5086058;28;20165;-62
2023/03/20 03:54:44;;;;;;;1999.90;999.90;;;;;;;8.74;100.00;94353.38;5086397;28;20186;-62
2023/03/20 03:57:15;;;;;;;1999.90;999.90;;;;;;;8.73;100.00;94355.31;5086475;28;20224;-61
2023/03/20 03:59:44;;;;;;;1999.90;999.90;;;;;;;8.72;100.00;94356.50;5086471;28;20157;-61
2023/03/20 04:02:11;;;;;;;1999.90;999.90;;;;;;;8.73;100.00;94365.41;5085973;28;20240;-62
2023/03/20 04:04:42;;;;;;;1999.90;999.90;;;;;;;8.73;100.00;94357.25;5086354;28;20405;-61
2023/03/20 04:07:07;;;;;;;1999.90;999.90;;;;;;;8.74;100.00;94359.56;5086141;28;20229;-61
2023/03/20 04:09:33;;;;;;;1999.90;999.90;;;;;;;8.76;100.00;94362.66;5085322;28;20216;-61
2023/03/20 04:11:59;;;;;;;1999.90;999.90;;;;;;;8.77;100.00;94372.34;5085333;28;20185;-62
2023/03/20 04:14:24;;;;;;;1999.90;999.90;;;;;;;8.76;100.00;94365.38;5085606;28;20165;-62
2023/03/20 04:16:50;;;;;;;1999.90;999.90;;;;;;;8.78;100.00;94371.16;5085599;28;20199;-62
2023/03/20 04:19:15;;;;;;;1999.90;999.90;;;;;;;8.78;100.00;94373.13;5086287;28;20424;-62
2023/03/20 04:21:41;;;;;;;1999.90;999.90;;;;;;;8.76;100.00;94383.63;5085511;28;20163;-62
2023/03/20 04:24:06;;;;;;;1999.90;999.90;;;;;;;8.79;100.00;94383.59;5085931;28;20165;-63
2023/03/20 04:26:32;;;;;;;1999.90;999.90;;;;;;;8.74;100.00;94381.34;5085842;28;20165;-63
2023/03/20 04:28:57;;;;;;;1999.90;999.90;;;;;;;8.77;100.00;94380.50;5084933;28;20465;-63
2023/03/20 04:31:23;;;;;;;1999.90;999.90;;;;;;;8.81;100.00;94392.09;5085403;28;20161;-62
2023/03/20 04:33:48;;;;;;;1999.90;999.90;;;;;;;8.79;100.00;94394.47;5085196;28;20161;-63
2023/03/20 04:36:13;;;;;;;1999.90;999.90;;;;;;;8.73;100.00;94400.78;5085320;28;20176;-62
2023/03/20 04:38:39;;;;;;;1999.90;999.90;;;;;;;8.72;100.00;94400.03;5085160;28;20161;-62
2023/03/20 04:41:05;;;;;;;1999.90;999.90;;;;;;;8.68;100.00;94404.78;5085697;28;20161;-61
2023/03/20 04:43:30;;;;;;;1999.90;999.90;;;;;;;8.67;100.00;94405.94;5085144;28;20166;-62
2023/03/20 04:45:56;;;;;;;1999.90;999.90;;;;;;;8.71;100.00;94409.38;5084993;28;20204;-62
2023/03/20 04:48:21;;;;;;;1999.90;999.90;;;;;;;8.72;100.00;94412.88;5084597;28;20212;-62
2023/03/20 04:50:47;;;;;;;1999.90;999.90;;;;;;;8.70;100.00;94418.72;5084912;28;20162;-62
2023/03/20 04:53:13;;;;;;;1999.90;999.90;;;;;;;8.66;100.00;94414.53;5084810;28;20476;-62
2023/03/20 04:55:39;;;;;;;1999.90;999.90;;;;;;;8.61;100.00;94418.50;5085341;28;20172;-61
2023/03/20 04:58:04;;;;;;;1999.90;999.90;;;;;;;8.64;100.00;94425.81;5085332;28;20162;-62
2023/03/20 05:00:30;;;;;;;1999.90;999.90;;;;;;;8.66;100.00;94422.69;5084828;28;20183;-62
2023/03/20 05:02:58;;;;;;;1999.90;999.90;;;;;;;8.65;100.00;94421.16;5084593;28;20162;-62
2023/03/20 05:05:24;;;;;;;1999.90;999.90;;;;;;;8.61;100.00;94429.38;5084385;28;20161;-62
2023/03/20 05:07:50;;;;;;;1999.90;999.90;;;;;;;8.67;100.00;94435.88;5084395;28;20161;-62
2023/03/20 05:10:16;;;;;;;1999.90;999.90;;;;;;;8.65;100.00;94442.94;5084548;28;20163;-61
2023/03/20 05:12:42;;;;;;;1999.90;999.90;;;;;;;8.63;100.00;94445.31;5084993;28;20165;-62
2023/03/20 05:15:07;;;;;;;1999.90;999.90;;;;;;;8.67;100.00;94446.78;5084466;28;20357;-62
2023/03/20 05:17:33;;;;;;;1999.90;999.90;;;;;;;8.74;100.00;94446.66;5084399;28;20161;-61
2023/03/20 05:19:58;;;;;;;1999.90;999.90;;;;;;;8.69;100.00;94447.13;5084445;28;20176;-62
2023/03/20 05:22:24;;;;;;;1999.90;999.90;;;;;;;8.66;100.00;94461.56;5084878;28;20170;-61
2023/03/20 05:24:50;;;;;;;1999.90;999.90;;;;;;;8.71;100.00;94460.34;5084785;28;20161;-62
2023/03/20 05:27:15;;;;;;;1999.90;999.90;;;;;;;8.68;100.00;94467.38;5084572;28;20395;-62
2023/03/20 05:29:41;;;;;;;1999.90;999.90;;;;;;;8.66;100.00;94472.44;5084859;28;20208;-62
2023/03/20 05:32:06;;;;;;;1999.90;999.90;;;;;;;8.62;100.00;94477.19;5084564;28;20178;-62
2023/03/20 05:34:31;;;;;;;1999.90;999.90;;;;;;;8.61;100.00;94481.09;5084173;28;20169;-62
2023/03/20 05:36:57;;;;;;;1999.90;999.90;;;;;;;8.59;100.00;94494.31;5084049;28;20203;-61
2023/03/20 05:39:22;;;;;;;1999.90;999.90;;;;;;;8.62;100.00;94498.94;5084318;28;20205;-61
2023/03/20 05:41:48;;;;;;;1999.90;999.90;;;;;;;8.62;100.00;94514.50;5083986;28;20181;-62
2023/03/20 05:44:13;;;;;;;1999.90;999.90;;;;;;;8.59;100.00;94521.53;5084521;28;20165;-61
2023/03/20 05:46:38;;;;;;;1999.90;999.90;;;;;;;8.62;100.00;94537.06;5084346;28;20166;-61
2023/03/20 05:49:04;;;;;;;1999.90;999.90;;;;;;;8.64;100.00;94545.56;5083866;28;20198;-62
2023/03/20 05:51:29;;;;;;;1999.90;999.90;;;;;;;8.63;100.00;94554.91;5083937;28;20392;-62
2023/03/20 05:53:55;;;;;;;1999.90;999.90;;;;;;;8.65;100.00;94560.72;5084490;28;20234;-62
2023/03/20 05:56:20;;;;;;;1999.90;999.90;;;;;;;8.61;100.00;94573.63;5083860;28;20298;-62
2023/03/20 05:58:45;;;;;;;1999.90;999.90;;;;;;;8.60;100.00;94582.94;5083889;28;20172;-62
2023/03/20 06:01:11;;;;;;;1999.90;999.90;;;;;;;8.61;100.00;94589.94;5083825;28;20369;-62
2023/03/20 06:03:36;;;;;;;1999.90;999.90;;;;;;;8.63;100.00;94603.88;5083766;28;20169;-62
2023/03/20 06:06:03;;;;;;;1999.90;999.90;;;;;;;8.67;100.00;94620.94;5083743;28;20196;-61
2023/03/20 06:08:29;;;;;;;1999.90;999.90;;;;;;;8.59;100.00;94641.28;5083680;28;20193;-61
2023/03/20 06:10:55;;;;;;;1999.90;999.90;;;;;;;8.64;100.00;94643.53;5084105;28;20169;-61
2023/03/20 06:13:20;;;;;;;1999.90;999.90;;;;;;;8.66;100.00;94645.84;5084192;28;20173;-61
2023/03/20 06:15:45;;;;;;;1999.90;999.90;;;;;;;8.62;100.00;94662.22;5083924;28;20166;-61
2023/03/20 06:18:11;;;;;;;1999.90;999.90;;;;;;;8.71;100.00;94672.63;5084222;28;20390;-61
2023/03/20 06:20:36;;;;;;;1999.90;999.90;;;;;;;8.74;100.00;94674.53;5083773;28;20170;-62
2023/03/20 06:23:01;;;;;;;1999.90;999.90;;;;;;;8.81;100.00;94667.03;5083573;28;20165;-62
2023/03/20 06:25:27;;;;;;;1999.90;999.90;;;;;;;8.78;100.00;94680.69;5083502;28;20199;-60
2023/03/20 06:27:52;;;;;;;1999.90;999.90;;;;;;;8.76;100.00;94683.81;5083398;28;20224;-63
2023/03/20 06:30:18;;;;;;;1999.90;999.90;;;;;;;8.83;100.00;94689.19;5083860;28;20177;-61
2023/03/20 06:32:43;;;;;;;1999.90;999.90;;;;;;;8.94;100.00;94697.97;5083991;28;20178;-64
2023/03/20 06:35:10;;;;;;;1999.90;999.90;;;;;;;8.92;100.00;94705.78;5086136;28;20171;-65
2023/03/20 06:37:35;;;;;;;1999.90;999.90;;;;;;;8.91;100.00;94712.41;5087691;28;20171;-70
2023/03/20 06:40:02;;;;;;;1999.90;999.90;;;;;;;8.98;100.00;94722.41;5087682;28;20197;-60
2023/03/20 06:42:28;;;;;;;1999.90;999.90;;;;;;;8.94;100.00;94738.81;5087674;28;20171;-62
2023/03/20 06:44:53;;;;;;;1999.90;999.90;;;;;;;8.94;100.00;94754.38;5087148;28;20168;-66
2023/03/20 06:47:18;;;;;;;1999.90;999.90;;;;;;;8.91;100.00;94766.84;5087067;28;20165;-59
2023/03/20 06:49:44;;;;;;;1999.90;999.90;;;;;;;8.98;100.00;94777.66;5087489;28;20197;-72
2023/03/20 06:52:15;;;;;;;1999.90;999.90;;;;;;;8.98;100.00;94776.88;5087201;28;20174;-61
2023/03/20 06:54:41;;;;;;;1999.90;999.90;;;;;;;8.98;100.00;94788.56;5087472;28;20196;-62
2023/03/20 06:57:06;;;;;;;1999.90;999.90;;;;;;;9.06;100.00;94795.47;5086877;28;20342;-61
2023/03/20 06:59:31;;;;;;;1999.90;999.90;;;;;;;9.10;100.00;94807.06;5087047;28;20180;-64
2023/03/20 07:01:57;;;;;;;1999.90;999.90;;;;;;;9.17;100.00;94812.44;5086896;28;20176;-63
2023/03/20 07:04:22;;;;;;;1999.90;999.90;;;;;;;9.26;100.00;94817.41;5086786;28;20359;-65
2023/03/20 07:06:48;;;;;;;1999.90;999.90;;;;;;;9.39;100.00;94830.06;5087094;28;20173;-68
2023/03/20 07:09:13;;;;;;;1999.90;999.90;;;;;;;9.38;100.00;94839.41;5087370;28;20190;-66
2023/03/20 07:11:39;;;;;;;1999.90;999.90;;;;;;;9.40;100.00;94858.84;5087279;28;20193;-65
2023/03/20 07:14:04;;;;;;;1999.90;999.90;;;;;;;9.43;100.00;94885.28;5086693;28;20369;-65
2023/03/20 07:16:30;;;;;;;1999.90;999.90;;;;;;;9.62;100.00;94901.00;5087062;28;20171;-65
2023/03/20 07:18:56;;;;;;;1999.90;999.90;;;;;;;9.76;100.00;94903.56;5086948;28;20165;-66
2023/03/20 07:21:22;;;;;;;1999.90;999.90;;;;;;;9.88;100.00;94918.59;5086865;28;20237;-66
2023/03/20 07:23:47;;;;;;;1999.90;999.90;;;;;;;9.89;100.00;94950.13;5086970;28;20182;-66
2023/03/20 07:26:13;;;;;;;1999.90;999.90;;;;;;;10.01;100.00;94958.53;5086482;28;20225;-66
2023/03/20 07:28:38;;;;;;;1999.90;999.90;;;;;;;10.13;100.00;94990.75;5086190;28;20227;-65
2023/03/20 07:31:04;;;;;;;1999.90;999.90;;;;;;;10.35;100.00;95020.50;5086190;28;20267;-65
2023/03/20 07:33:29;;;;;;;1999.90;999.90;;;;;;;10.57;100.00;95062.69;5086179;28;20180;-64
2023/03/20 07:35:55;;;;;;;1999.90;999.90;;;;;;;10.75;100.00;95101.47;5086958;28;20253;-65
2023/03/20 07:38:21;;;;;;;1999.90;999.90;;;;;;;11.19;100.00;95139.47;5086229;28;20200;-64
2023/03/20 07:40:47;;;;;;;1999.90;999.90;;;;;;;11.53;100.00;95209.25;5086141;28;20169;-65
2023/03/20 07:43:14;;;;;;;1999.90;999.90;;;;;;;11.54;100.00;95281.16;5086036;28;20172;-65
2023/03/20 07:45:39;;;;;;;1999.90;999.90;;;;;;;11.36;100.00;95352.44;5084824;28;20256;-65
2023/03/20 07:48:05;;;;;;;1999.90;999.90;;;;;;;11.20;100.00;95384.28;5085900;28;20200;-65
2023/03/20 07:50:30;;;;;;;1999.90;999.90;;;;;;;11.10;100.00;95412.47;5085929;28;20189;-62
2023/03/20 07:52:56;;;;;;;1999.90;999.90;;;;;;;11.12;100.00;95418.31;5085844;28;20199;-64
2023/03/20 07:55:21;;;;;;;1999.90;999.90;;;;;;;11.29;100.00;95428.31;5085654;28;20224;-63
2023/03/20 07:57:48;;;;;;;1999.90;999.90;;;;;;;11.44;100.00;95437.91;5085744;28;20165;-63
2023/03/20 08:00:15;;;;;;;1999.90;999.90;;;;;;;11.68;100.00;95434.13;5085749;28;20236;-63
2023/03/20 08:02:41;;;;;;;1999.90;999.90;;;;;;;11.81;100.00;95460.56;5085695;28;20166;-64
2023/03/20 08:05:07;;;;;;;1999.90;999.90;;;;;;;11.89;100.00;95488.63;5085739;28;20173;-63
2023/03/20 08:07:32;;;;;;;1999.90;999.90;;;;;;;12.03;100.00;95510.34;5086154;28;20177;-64
2023/03/20 08:09:58;;;;;;;1999.90;999.90;;;;;;;12.04;100.00;95544.75;5085487;28;20264;-64
2023/03/20 08:12:23;;;;;;;1999.90;999.90;;;;;;;12.20;100.00;95559.41;5085627;28;20332;-63
2023/03/20 08:14:49;;;;;;;1999.90;999.90;;;;;;;12.52;100.00;95578.19;5086139;28;20173;-65
2023/03/20 08:17:14;;;;;;;1999.90;999.90;;;;;;;13.12;100.00;95597.38;5085372;28;20170;-64
2023/03/20 08:19:39;;;;;;;1999.90;999.90;;;;;;;15.47;100.00;95610.16;5085516;28;20224;-63
2023/03/20 08:22:05;;;;;;;1999.90;999.90;;;;;;;16.47;100.00;95642.28;5085424;28;20191;-65
2023/03/20 08:24:30;;;;;;;1999.90;999.90;;;;;;;17.59;100.00;95652.84;5085418;28;20470;-65
2023/03/20 08:26:56;;;;;;;1999.90;999.90;;;;;;;17.24;100.00;95662.16;5085306;28;20218;-65
2023/03/20 08:29:21;;;;;;;1999.90;999.90;;;;;;;16.57;100.00;95668.81;5085111;28;20273;-66
2023/03/20 08:31:47;;;;;;;1999.90;999.90;;;;;;;16.41;100.00;95672.34;5085301;28;20283;-65
2023/03/20 08:34:12;;;;;;;1999.90;999.90;;;;;;;15.89;100.00;95674.44;5085709;28;20361;-64
2023/03/20 08:36:40;;;;;;;1999.90;999.90;;;;;;;15.57;100.00;95669.69;5085685;28;20173;-64
2023/03/20 08:39:07;;;;;;;1999.90;999.90;;;;;;;14.88;100.00;95661.75;5084789;28;20176;-64
2023/03/20 08:41:36;;;;;;;1999.90;999.90;;;;;;;14.91;100.00;95662.88;5085052;28;20252;-64
2023/03/20 08:44:02;;;;;;;1999.90;999.90;;;;;;;15.62;100.00;95660.13;5084830;28;20169;-65
2023/03/20 08:46:27;;;;;;;1999.90;999.90;;;;;;;15.26;100.00;95657.38;5085009;28;20177;-65
2023/03/20 08:48:53;;;;;;;1999.90;999.90;;;;;;;14.86;100.00;95653.13;5084985;28;20513;-66
2023/03/20 08:51:18;;;;;;;1999.90;999.90;;;;;;;14.85;100.00;95651.59;5085393;28;20248;-65
2023/03/20 08:53:43;;;;;;;1999.90;999.90;;;;;;;14.39;100.00;95657.19;5085335;28;20185;-63
2023/03/20 08:56:09;;;;;;;1999.90;999.90;;;;;;;14.34;100.00;95659.66;5084739;28;20176;-65
2023/03/20 08:58:34;;;;;;;1999.90;999.90;;;;;;;14.18;100.00;95663.06;5084366;28;20215;-65
2023/03/20 09:01:05;;;;;;;1999.90;999.90;;;;;;;13.93;100.00;95664.66;5085129;28;20167;-64
2023/03/20 09:03:30;;;;;;;1999.90;999.90;;;;;;;14.02;100.00;95665.69;5085118;28;20187;-64
2023/03/20 09:05:56;;;;;;;1999.90;999.90;;;;;;;13.85;100.00;95666.00;5084544;28;20196;-64
2023/03/20 09:08:21;;;;;;;1999.90;999.90;;;;;;;13.76;100.00;95669.25;5084522;28;20201;-64
2023/03/20 09:10:50;;;;;;;1999.90;999.90;;;;;;;13.47;100.00;95662.66;5084448;28;20165;-64
2023/03/20 09:13:15;;;;;;;1999.90;999.90;;;;;;;13.77;100.00;95670.81;5084972;28;20184;-64
2023/03/20 09:15:41;;;;;;;1999.90;999.90;;;;;;;13.76;100.00;95663.00;5084413;28;20161;-64
2023/03/20 09:18:07;;;;;;;1999.90;999.90;;;;;;;14.03;100.00;95670.00;5084376;28;20161;-64
2023/03/20 09:20:32;;;;;;;1999.90;999.90;;;;;;;14.26;100.00;95667.25;5084143;28;20335;-64
2023/03/20 09:22:57;;;;;;;1999.90;999.90;;;;;;;13.77;100.00;95664.56;5084263;28;20165;-64
2023/03/20 09:25:23;;;;;;;1999.90;999.90;;;;;;;13.99;100.00;95665.75;5084581;28;20161;-64
2023/03/20 09:27:54;;;;;;;1999.90;999.90;;;;;;;14.08;100.00;95658.53;5084436;28;20244;-65
2023/03/20 09:30:21;;;;;;;1999.90;999.90;;;;;;;14.00;100.00;95673.59;5084672;28;20161;-65
2023/03/20 09:32:46;;;;;;;1999.90;999.90;;;;;;;14.02;100.00;95675.91;5084931;28;20165;-64
2023/03/20 09:35:12;;;;;;;1999.90;999.90;;;;;;;13.96;100.00;95672.88;5084087;28;20244;-64
2023/03/20 09:37:37;;;;;;;1999.90;999.90;;;;;;;13.75;100.00;95675.94;5084446;28;20212;-64
2023/03/20 09:40:04;;;;;;;1999.90;999.90;;;;;;;13.87;100.00;95680.84;5084068;28;20403;-64
2023/03/20 09:42:48;;;;;;;1999.90;999.90;;;;;;;14.00;100.00;95676.31;5083961;28;20165;-65
2023/03/20 09:45:22;;;;;;;1999.90;999.90;;;;;;;14.37;100.00;95672.56;5084556;28;20171;-64
2023/03/20 09:48:18;;;;;;;1999.90;999.90;;;;;;;14.72;100.00;95675.41;5083691;28;20469;-64
2023/03/20 09:50:54;;;;;;;1999.90;999.90;;;;;;;14.73;100.00;95665.97;5084211;28;20181;-64
2023/03/20 09:53:30;;;;;;;1999.90;999.90;;;;;;;14.63;100.00;95666.94;5084328;28;20165;-65
2023/03/20 09:55:56;;;;;;;1999.90;999.90;;;;;;;14.27;100.00;95674.31;5084317;28;20211;-65
2023/03/20 09:58:30;;;;;;;1999.90;999.90;;;;;;;14.63;100.00;95672.44;5084617;28;20181;-64
2023/03/20 10:00:58;;;;;;;1999.90;999.90;;;;;;;16.48;100.00;95665.88;5084315;28;20195;-64
2023/03/20 10:03:35;;;;;;;1999.90;999.90;;;;;;;16.35;100.00;95672.09;5084128;28;20392;-64
2023/03/20 10:06:10;;;;;;;1999.90;999.90;;;;;;;15.59;100.00;95672.78;5084353;28;20172;-65
2023/03/20 10:08:37;;;;;;;1999.90;999.90;;;;;;;14.87;100.00;95660.19;5083746;28;20196;-65
2023/03/20 10:11:19;;;;;;;1999.90;999.90;;;;;;;15.04;100.00;95670.03;5083430;28;20249;-65
2023/03/20 10:13:54;;;;;;;1999.90;999.90;;;;;;;15.34;100.00;95666.28;5083602;28;20169;-65
2023/03/20 10:16:38;;;;;;;1999.90;999.90;;;;;;;15.18;100.00;95666.22;5083556;28;20458;-64
2023/03/20 10:19:18;;;;;;;1999.90;999.90;;;;;;;15.05;100.00;95663.31;5084288;28;20205;-64
2023/03/20 10:22:16;;;;;;;1999.90;999.90;;;;;;;14.92;100.00;95667.16;5083840;28;20210;-64
2023/03/20 10:24:49;;;;;;;1999.90;999.90;;;;;;;14.67;100.00;95656.66;5063429;28;20181;-64
2023/03/20 10:27:24;;;;;;;1999.90;999.90;;;;;;;14.54;100.00;95666.75;5083815;28;20169;-64
2023/03/20 10:30:28;;;;;;;1999.90;999.90;;;;;;;14.34;100.00;95659.66;5084065;28;20243;-65
2023/03/20 10:33:25;;;;;;;1999.90;999.90;;;;;;;14.20;100.00;95666.16;5083382;28;20172;-65
2023/03/20 10:36:15;;;;;;;1999.90;999.90;;;;;;;14.29;100.00;95655.44;5083385;28;20204;-65
2023/03/20 10:38:47;;;;;;;1999.90;999.90;;;;;;;14.28;100.00;95651.13;5083727;28;20169;-64
2023/03/20 10:41:17;;;;;;;1999.90;999.90;;;;;;;14.58;100.00;95653.72;5083787;28;20173;-66
2023/03/20 10:43:46;;;;;;;1999.90;999.90;;;;;;;14.74;100.00;95645.53;5083749;28;20173;-64
2023/03/20 10:46:26;;;;;;;1999.90;999.90;;;;;;;14.79;100.00;95642.28;5083456;28;20248;-65
2023/03/20 10:48:59;;;;;;;1999.90;999.90;;;;;;;14.91;100.00;95652.66;5084010;28;20204;-65
2023/03/20 10:51:54;;;;;;;1999.90;999.90;;;;;;;15.03;100.00;95637.44;5083630;28;20395;-61
2023/03/20 10:54:54;;;;;;;1999.90;999.90;;;;;;;15.24;100.00;95626.00;5083197;28;20201;-61
2023/03/20 10:57:26;;;;;;;1999.90;999.90;;;;;;;16.11;100.00;95632.16;5070763;28;20193;-62
2023/03/20 10:59:55;;;;;;;1999.90;999.90;;;;;;;16.74;100.00;95628.91;5083416;28;20173;-63
2023/03/20 11:02:23;;;;;;;1999.90;999.90;;;;;;;16.68;100.00;95625.16;5083214;28;20209;-62
2023/03/20 11:04:49;;;;;;;1999.90;999.90;;;;;;;17.86;100.00;95625.50;5083107;28;20485;-63